Pagrindinis puslapis
METAR-TAF:

METAR-TAF

Oro uostai :

Kermanšahas, Iranas

platuma: 34-16N, ilguma: 047-07E, Aukštis: 1320 m

Dabartinis oras

Ataskaita buvo paskelbta 24 minutes, ne 02:00 UTC
Ramus vėjas
Temperatūra 16°C
Drėgmė 27%
Slėgis 1012 hPa
Matomumas 10 km arba daugiau
nėra debesų žemiau 1500 m ir nėra kamuolinių lietaus debesų

METAR: OICC 170200Z 00000KT CAVOK 16/M03 Q1011 A2987

Laikas: 06:54 (02:24 UTC)

Prognozė

Ataskaita buvo paskelbta 3 valandos ir 19 minutes, ne 23:05 UTC
Prognozė galioja nuo 17 metu 00 UTC su 17 metu 09 UTC
Vėjas 8 kt iš Vakarų/Šiaurės Vakarų
Matomumas: 8000 m

TAF: OICC 162305Z 1700/1709 30008KT 8000 NSC

Orai ataskaitas ir orų prognozės (METAR, TAF).

turimą stotys yra geltonos ir raudonos taškus žemėlapyje.

Perkelti pele per norėdami pamatyti stoties vardą.

Tada spustelėkite, norėdami matyti oro stebėjimo ir prognozės.

Norėdami pakeisti žemėlapį: spustelėkite ant žalios mygtukų su juodo kryžiaus žemyn,; žalią mygtuką su brūkšneliu, jei norite nutolinti; arba žalių rodyklių gretimoms žemėlapius.


METAR-TAF: